Bourne End, United Kingdom
Current Conditions -  °F | °C
As of 4:50 AM on Saturday 25 Oct 2014 (Local Time) from EGWU Reporting Station
Clear Clear  
Wind Chill: 43°   Ceiling: Unl
Heat Index: 43°   Visibility: 3mi
Dew Point: 43°   Wind: 2mph
Humidity: 100%   Direction: 270°W
Pressure: 30"   Gusts: NA
Location:  51.57°N, 0.71°W
Report Text: EGWU 250350Z AUTO 27002KT 5000 // NCD 06/06 Q1016
Loading
Personal Weather Stations






























Interactive Weather Map
Tropical Storm Tracking
New forecast layout! Learn more

10-Day Weather Forecast

Advertisements
Track Severe Weather on mobile